Terminal Aerodrome Forecast
Issued by NWS

Home | Current Version | Previous Version | Text Only | Print | Product List | Glossary On
Versions: 1 2 3 4 5 6 7 8 9 10 11 12 13 14 15 16 17 18 19 20 21
000
FTUS42 KGSP 251723
TAFGMU
TAF
KGMU 251723Z 2518/2618 36006KT P6SM OVC120
     FM260000 35005KT P6SM OVC050
     FM260300 34006KT 6SM -RA BR OVC020
     FM260800 33006KT 3SM -RA BR OVC007
     FM261600 28005KT P6SM OVC020=

USA.gov is the U.S. government's official web portal to all federal, state and local government web resources and services.